Time;durP1;ratioP1;P1;durP2;ratioP2;P2;SDS_P1;SDS_P2;PMS_P1;PMS_P2;Temp;Humidity;BMP_temperature;BMP_pressure;BME280_temperature;BME280_humidity;BME280_pressure;Samples;Min_cycle;Max_cycle;Signal;HPM_P1;HPM_P2
2022/12/18 00:03:57;;;;;;;35.38;16.77;;;;;;;-1.46;86.68;101858.09;2841214;83;21564;-90
2022/12/18 00:07:59;;;;;;;37.17;18.90;;;;;;;-1.47;87.13;101873.33;2850740;82;21083;-89
2022/12/18 00:12:00;;;;;;;40.67;21.48;;;;;;;-1.57;87.77;101879.03;2825596;82;21060;-90
2022/12/18 00:16:04;;;;;;;50.90;20.65;;;;;;;-1.49;88.51;101875.08;2838603;82;21034;-89
2022/12/18 00:20:07;;;;;;;34.43;18.30;;;;;;;-1.36;88.60;101878.47;2804296;82;21011;-90
2022/12/18 00:24:10;;;;;;;39.08;22.10;;;;;;;-1.29;87.84;101878.85;2820277;83;21011;-90
2022/12/18 00:28:11;;;;;;;46.02;22.25;;;;;;;-1.21;87.09;101882.30;2852905;83;21045;-90
2022/12/18 00:32:12;;;;;;;39.27;20.43;;;;;;;-1.38;86.47;101890.22;2836014;83;21487;-91
2022/12/18 00:36:17;;;;;;;38.67;20.85;;;;;;;-1.33;86.96;101911.09;2819946;83;21721;-90
2022/12/18 00:40:18;;;;;;;37.65;20.70;;;;;;;-1.27;87.38;101916.29;2819023;81;21026;-89
2022/12/18 00:44:20;;;;;;;38.05;22.17;;;;;;;-1.32;86.94;101915.00;2789939;83;21032;-90
2022/12/18 00:48:21;;;;;;;39.08;18.67;;;;;;;-1.25;87.42;101921.48;2801752;82;21519;-90
2022/12/18 00:52:22;;;;;;;29.70;18.52;;;;;;;-1.22;86.61;101923.65;2827276;83;21014;-91
2022/12/18 00:56:24;;;;;;;33.42;17.62;;;;;;;-1.20;86.18;101930.16;2819369;83;21548;-90
2022/12/18 01:00:26;;;;;;;32.20;17.48;;;;;;;-1.27;86.47;101939.79;2804675;83;21052;-92
2022/12/18 01:04:28;;;;;;;34.25;19.67;;;;;;;-1.31;86.54;101953.30;2804238;83;23015;-89
2022/12/18 01:08:29;;;;;;;32.60;19.30;;;;;;;-1.22;86.71;101958.91;2790919;83;21062;-90
2022/12/18 01:12:31;;;;;;;33.60;18.62;;;;;;;-1.28;85.62;101950.23;2799171;83;21587;-91
2022/12/18 01:16:32;;;;;;;32.28;17.55;;;;;;;-1.26;85.66;101958.92;2796269;83;21075;-90
2022/12/18 01:20:33;;;;;;;32.35;19.20;;;;;;;-1.27;85.43;101957.19;2813863;82;21066;-91
2022/12/18 01:24:35;;;;;;;38.30;18.12;;;;;;;-1.24;85.25;101956.74;2843957;83;21027;-91
2022/12/18 01:28:37;;;;;;;35.08;19.00;;;;;;;-1.41;84.11;101955.50;2833825;83;29349;-91
2022/12/18 01:32:39;;;;;;;38.35;19.57;;;;;;;-1.44;84.01;101951.61;2820222;83;21027;-92
2022/12/18 01:36:40;;;;;;;28.23;15.72;;;;;;;-1.47;84.74;101948.59;2763485;85;21107;-91
2022/12/18 01:40:42;;;;;;;36.42;18.70;;;;;;;-1.42;84.46;101951.16;2800500;83;21025;-90
2022/12/18 01:45:04;;;;;;;27.62;16.75;;;;;;;-1.43;84.16;101961.17;2796988;83;21094;-91
2022/12/18 01:49:05;;;;;;;34.58;18.55;;;;;;;-1.44;84.54;101969.89;2800726;83;21574;-90
2022/12/18 01:53:17;;;;;;;33.28;18.10;;;;;;;-1.58;85.06;101972.11;2804742;82;21007;-90
2022/12/18 01:57:19;;;;;;;44.42;20.10;;;;;;;-1.78;85.45;101978.72;2824317;82;21131;-89
2022/12/18 02:01:25;;;;;;;38.08;19.75;;;;;;;-1.77;85.29;101991.31;2803226;82;21034;-90
2022/12/18 02:05:48;;;;;;;45.90;22.87;;;;;;;-1.71;86.19;101995.23;2811371;82;21054;-90
2022/12/18 02:09:54;;;;;;;29.90;19.02;;;;;;;-1.62;86.39;101987.36;2828020;83;21078;-90
2022/12/18 02:14:10;;;;;;;35.38;19.27;;;;;;;-1.67;86.22;101994.76;2830177;82;21121;-90
2022/12/18 02:18:22;;;;;;;33.27;18.27;;;;;;;-1.73;86.76;101999.13;2822504;82;21070;-90
2022/12/18 02:23:11;;;;;;;29.55;18.52;;;;;;;-1.83;86.94;101995.25;2812726;82;21031;-91
2022/12/18 02:27:13;;;;;;;34.08;16.65;;;;;;;-1.95;86.85;101998.34;2779235;83;21111;-91
2022/12/18 02:31:23;;;;;;;31.00;17.25;;;;;;;-2.03;86.37;102008.78;2793708;83;21547;-91
2022/12/18 02:35:28;;;;;;;41.88;22.58;;;;;;;-2.05;87.30;102010.53;2738667;84;21079;-91
2022/12/18 02:39:32;;;;;;;32.83;18.32;;;;;;;-1.99;87.32;101991.37;2725938;84;21142;-91
2022/12/18 02:43:33;;;;;;;33.00;16.50;;;;;;;-1.78;87.46;102010.03;2728579;84;21067;-91
2022/12/18 02:47:39;;;;;;;35.35;20.08;;;;;;;-1.80;86.27;102010.89;2732769;84;21026;-90
2022/12/18 02:52:08;;;;;;;37.90;19.25;;;;;;;-1.77;86.65;102018.70;2737015;85;21039;-91
2022/12/18 02:56:18;;;;;;;36.38;19.20;;;;;;;-1.73;86.59;102020.46;2694153;86;21075;-90
2022/12/18 03:00:41;;;;;;;27.55;18.15;;;;;;;-1.82;85.94;102009.61;2687160;86;21092;-91
2022/12/18 03:05:10;;;;;;;32.75;18.87;;;;;;;-1.76;85.67;102003.52;2709831;86;21083;-90
2022/12/18 03:09:38;;;;;;;29.18;16.00;;;;;;;-1.77;85.05;101993.92;2689468;86;21657;-90
2022/12/18 03:13:52;;;;;;;29.00;16.93;;;;;;;-1.63;85.58;102006.95;2699447;87;21056;-91
2022/12/18 03:18:02;;;;;;;28.47;15.45;;;;;;;-1.49;85.22;102003.83;2671363;86;21026;-91
2022/12/18 03:22:06;;;;;;;38.60;18.27;;;;;;;-1.41;84.60;102006.41;2659697;86;21087;-91
2022/12/18 03:26:12;;;;;;;27.58;18.25;;;;;;;-1.29;83.00;102013.32;2740033;85;21051;-91
2022/12/18 03:30:15;;;;;;;31.57;17.52;;;;;;;-1.39;82.25;102025.55;2750086;85;21123;-92
2022/12/18 03:34:22;;;;;;;34.20;18.00;;;;;;;-1.65;82.89;102024.36;2772430;83;21062;-90
2022/12/18 03:38:23;;;;;;;38.28;18.90;;;;;;;-1.69;83.81;102028.70;2811882;83;21068;-91
2022/12/18 03:42:39;;;;;;;26.73;17.37;;;;;;;-1.65;83.86;102030.43;2820470;82;21077;-90
2022/12/18 03:46:48;;;;;;;33.10;18.07;;;;;;;-1.69;84.56;102036.53;2851406;82;21070;-90
2022/12/18 03:50:55;;;;;;;35.70;19.90;;;;;;;-1.87;85.02;102048.75;2710611;86;21757;-89
2022/12/18 03:54:58;;;;;;;34.67;20.08;;;;;;;-1.87;85.02;102048.75;2721171;85;21099;-91
2022/12/18 03:59:03;;;;;;;28.15;19.10;;;;;;;-1.89;85.72;102042.66;2737804;85;21117;-92
2022/12/18 04:03:05;;;;;;;32.95;18.37;;;;;;;-1.85;85.96;102046.56;2716844;85;21086;-92
2022/12/18 04:07:07;;;;;;;32.45;19.25;;;;;;;-1.83;86.11;102049.62;2734512;85;21046;-90
2022/12/18 04:11:09;;;;;;;37.65;21.40;;;;;;;-1.81;86.40;102050.91;2722088;85;21184;-89
2022/12/18 04:15:12;;;;;;;35.20;20.43;;;;;;;-1.80;85.90;102048.30;2696447;86;21059;-90
2022/12/18 04:19:13;;;;;;;32.90;18.32;;;;;;;-1.83;85.89;102064.39;2720025;85;21058;-90
2022/12/18 04:23:14;;;;;;;35.73;21.73;;;;;;;-1.83;85.77;102070.91;2724458;85;21213;-90
2022/12/18 04:27:16;;;;;;;30.77;19.55;;;;;;;-1.79;85.97;102069.61;2764846;83;21520;-91
2022/12/18 04:31:17;;;;;;;36.98;21.93;;;;;;;-1.84;85.75;102054.83;2862524;81;21069;-91
2022/12/18 04:35:18;;;;;;;34.27;23.20;;;;;;;-1.83;85.76;102065.27;2837824;81;21043;-91
2022/12/18 04:39:20;;;;;;;48.38;20.80;;;;;;;-1.87;85.75;102060.91;2857449;81;21022;-91
2022/12/18 04:43:21;;;;;;;44.38;20.97;;;;;;;-1.92;85.98;102063.54;2874520;81;21003;-92
2022/12/18 04:47:23;;;;;;;32.33;20.85;;;;;;;-1.98;86.53;102079.17;2868184;82;21012;-91
2022/12/18 04:51:24;;;;;;;33.08;18.52;;;;;;;-2.01;86.86;102073.97;2855397;81;21062;-91
2022/12/18 04:55:25;;;;;;;49.45;23.73;;;;;;;-1.98;86.19;102080.48;2770963;83;21056;-91
2022/12/18 04:59:27;;;;;;;29.95;19.30;;;;;;;-1.94;86.53;102080.94;2764582;84;21289;-91
2022/12/18 05:03:28;;;;;;;35.08;20.50;;;;;;;-1.95;85.66;102093.97;2853381;82;21058;-91
2022/12/18 05:07:30;;;;;;;36.33;19.27;;;;;;;-1.96;85.01;102090.51;2798046;83;21005;-91
2022/12/18 05:11:31;;;;;;;37.00;20.95;;;;;;;-2.41;85.11;102101.33;2806602;83;21031;-91
2022/12/18 05:15:33;;;;;;;30.32;20.27;;;;;;;-2.41;85.10;102100.91;2788814;83;21047;-90
2022/12/18 05:19:37;;;;;;;31.30;18.48;;;;;;;-2.38;85.27;102109.14;2795580;83;20991;-92
2022/12/18 05:23:38;;;;;;;39.18;24.55;;;;;;;-2.48;85.21;102110.45;2801859;83;21015;-90
2022/12/18 05:27:39;;;;;;;39.20;20.85;;;;;;;-2.47;84.85;102113.49;2803125;83;21074;-90
2022/12/18 05:31:40;;;;;;;32.15;18.20;;;;;;;-2.50;85.06;102117.40;2806325;82;21110;-90
2022/12/18 05:35:41;;;;;;;30.37;20.45;;;;;;;-2.74;85.40;102107.36;2816166;82;21063;-90
2022/12/18 05:39:44;;;;;;;40.45;20.25;;;;;;;-2.66;84.46;102133.41;2833391;82;21018;-90
2022/12/18 05:43:45;;;;;;;33.80;18.52;;;;;;;-2.66;84.91;102144.27;2797022;83;21583;-90
2022/12/18 05:47:46;;;;;;;38.92;21.80;;;;;;;-2.86;83.79;102122.94;2852084;82;20984;-90
2022/12/18 05:51:47;;;;;;;46.60;22.90;;;;;;;-2.82;83.77;102128.59;2815767;83;21031;-89
2022/12/18 05:55:49;;;;;;;35.08;18.60;;;;;;;-2.69;83.31;102148.18;2823426;82;21067;-91
2022/12/18 05:59:50;;;;;;;40.55;21.60;;;;;;;-2.80;84.00;102151.60;2824725;82;20972;-90
2022/12/18 06:03:52;;;;;;;39.48;23.18;;;;;;;-2.77;83.66;102163.33;2834815;82;21034;-91
2022/12/18 06:07:53;;;;;;;45.50;21.90;;;;;;;-2.78;83.72;102160.29;2837972;82;21070;-90
2022/12/18 06:11:54;;;;;;;37.30;20.55;;;;;;;-2.88;84.19;102169.80;2818705;82;21074;-89
2022/12/18 06:15:56;;;;;;;35.55;20.37;;;;;;;-2.96;83.95;102166.72;2817760;82;21011;-90
2022/12/18 06:19:57;;;;;;;37.50;18.40;;;;;;;-3.06;84.25;102181.01;2816219;82;21086;-89
2022/12/18 06:24:00;;;;;;;57.95;33.02;;;;;;;-3.10;84.49;102183.16;2837166;82;21613;-90
2022/12/18 06:28:01;;;;;;;43.10;24.98;;;;;;;-3.05;83.96;102184.05;2823999;82;20995;-90
2022/12/18 06:32:03;;;;;;;45.25;25.85;;;;;;;-3.05;84.36;102180.14;2841071;82;21090;-90
2022/12/18 06:36:08;;;;;;;44.50;22.40;;;;;;;-2.99;84.82;102196.23;2770366;84;21392;-90
2022/12/18 06:40:10;;;;;;;33.15;20.48;;;;;;;-2.92;84.66;102199.75;2798293;83;21550;-91
2022/12/18 06:44:11;;;;;;;165.25;77.20;;;;;;;-2.99;84.92;102205.77;2810314;82;21664;-91
2022/12/18 06:48:13;;;;;;;180.50;79.55;;;;;;;-3.01;84.16;102204.48;2798628;82;21023;-91
2022/12/18 06:52:17;;;;;;;60.80;29.92;;;;;;;-3.14;84.63;102213.95;2798022;82;21047;-89
2022/12/18 06:56:19;;;;;;;36.60;22.42;;;;;;;-3.23;85.41;102215.17;2802237;82;21039;-89
2022/12/18 07:00:20;;;;;;;51.90;26.77;;;;;;;-3.37;86.51;102213.34;2807964;82;21023;-89
2022/12/18 07:04:21;;;;;;;36.38;23.05;;;;;;;-3.20;86.59;102224.30;2821677;82;20996;-90
2022/12/18 07:08:22;;;;;;;50.55;30.85;;;;;;;-3.26;87.01;102227.73;2831940;83;21058;-89
2022/12/18 07:12:24;;;;;;;39.88;23.55;;;;;;;-3.19;87.15;102233.86;2814421;82;21075;-90
2022/12/18 07:16:25;;;;;;;44.93;27.27;;;;;;;-3.13;85.96;102231.73;2827701;81;21007;-90
2022/12/18 07:20:27;;;;;;;42.30;25.52;;;;;;;-3.05;85.91;102244.35;2797727;81;21039;-90
2022/12/18 07:24:28;;;;;;;45.60;23.70;;;;;;;-3.13;85.95;102246.94;2839224;82;21019;-90
2022/12/18 07:28:29;;;;;;;54.20;30.40;;;;;;;-3.35;86.13;102241.55;2847474;83;21031;-89
2022/12/18 07:32:31;;;;;;;54.15;30.27;;;;;;;-3.28;86.35;102245.07;2822059;83;21082;-90
2022/12/18 07:36:32;;;;;;;54.60;28.38;;;;;;;-3.40;86.35;102257.56;2859281;80;21110;-89
2022/12/18 07:40:34;;;;;;;47.27;30.17;;;;;;;-3.34;86.87;102264.55;2862250;81;21433;-90
2022/12/18 07:44:35;;;;;;;44.98;27.15;;;;;;;-3.34;86.64;102277.16;2815639;82;20984;-90
2022/12/18 07:48:37;;;;;;;115.32;57.17;;;;;;;-3.28;86.43;102281.95;2829632;82;21136;-90
2022/12/18 07:52:38;;;;;;;143.85;71.57;;;;;;;-3.20;85.64;102276.38;2805334;82;21032;-90
2022/12/18 07:56:39;;;;;;;144.47;70.47;;;;;;;-3.25;85.85;102280.67;2777775;82;21030;-92
2022/12/18 08:00:41;;;;;;;89.35;42.80;;;;;;;-3.26;85.86;102280.23;2807454;82;21668;-89
2022/12/18 08:04:42;;;;;;;135.40;66.65;;;;;;;-3.47;85.84;102277.90;2825620;81;21035;-88
2022/12/18 08:08:43;;;;;;;102.02;56.25;;;;;;;-3.27;86.17;102285.86;2822578;82;21015;-89
2022/12/18 08:12:45;;;;;;;65.37;36.20;;;;;;;-3.11;85.54;102300.30;2832439;82;21027;-88
2022/12/18 08:16:46;;;;;;;54.03;32.17;;;;;;;-3.20;85.10;102296.78;2810350;83;21644;-89
2022/12/18 08:20:47;;;;;;;62.38;32.25;;;;;;;-3.28;85.34;102294.53;2776706;81;21351;-88
2022/12/18 08:24:49;;;;;;;58.98;31.27;;;;;;;-3.30;85.11;102302.34;2809243;82;21650;-89
2022/12/18 08:28:51;;;;;;;89.75;45.48;;;;;;;-3.38;84.76;102305.29;2789006;82;21135;-90
2022/12/18 08:32:53;;;;;;;107.55;51.28;;;;;;;-3.27;84.64;102307.13;2821829;82;21067;-89
2022/12/18 08:36:55;;;;;;;79.50;43.87;;;;;;;-3.34;84.77;102305.78;2802230;83;21052;-90
2022/12/18 08:41:04;;;;;;;84.97;45.35;;;;;;;-3.35;84.76;102320.07;2800466;81;22280;-89
2022/12/18 08:45:07;;;;;;;61.73;32.85;;;;;;;-3.43;84.91;102317.40;2790363;81;21036;-89
2022/12/18 08:49:10;;;;;;;70.52;44.75;;;;;;;-3.25;84.58;102322.33;2827119;83;21039;-89
2022/12/18 08:53:12;;;;;;;68.83;39.90;;;;;;;-3.03;83.46;102322.08;2826530;82;21031;-89
2022/12/18 08:57:13;;;;;;;57.20;30.75;;;;;;;-2.87;82.00;102312.64;2884164;81;20987;-89
2022/12/18 09:01:15;;;;;;;53.58;30.60;;;;;;;-2.79;80.63;102302.27;2866248;82;21101;-88
2022/12/18 09:05:16;;;;;;;57.80;29.95;;;;;;;-2.69;80.52;102291.48;2861438;81;21576;-90
2022/12/18 09:09:17;;;;;;;55.45;32.08;;;;;;;-2.66;80.56;102283.67;2857942;81;21023;-89
2022/12/18 09:13:19;;;;;;;62.08;33.53;;;;;;;-2.59;80.04;102273.71;2848993;81;21606;-89
2022/12/18 09:17:20;;;;;;;50.88;28.47;;;;;;;-2.55;79.69;102272.89;2837033;81;21086;-88
2022/12/18 09:21:21;;;;;;;39.98;22.02;;;;;;;-2.54;80.00;102270.72;2849935;80;21508;-89
2022/12/18 09:25:22;;;;;;;47.33;27.05;;;;;;;-2.70;80.70;102269.75;2840580;81;21046;-89
2022/12/18 09:29:24;;;;;;;65.15;26.68;;;;;;;-2.76;81.09;102267.12;2824182;81;21596;-89
2022/12/18 09:33:25;;;;;;;56.13;29.80;;;;;;;-2.70;80.97;102261.93;2856626;81;21063;-90
2022/12/18 09:37:26;;;;;;;39.58;22.73;;;;;;;-2.66;80.50;102265.44;2833164;83;21000;-90
2022/12/18 09:41:49;;;;;;;67.27;36.48;;;;;;;-2.78;80.89;102261.03;2801520;83;21063;-89
2022/12/18 09:46:05;;;;;;;53.73;28.12;;;;;;;-2.76;81.20;102254.95;2808491;82;21598;-89
2022/12/18 09:50:21;;;;;;;35.28;19.65;;;;;;;-2.84;81.36;102257.09;2825450;83;21019;-89
2022/12/18 09:54:33;;;;;;;50.58;26.52;;;;;;;-2.80;80.85;102267.52;2834886;82;21058;-89
2022/12/18 09:58:40;;;;;;;47.85;28.55;;;;;;;-2.61;80.71;102275.02;2805661;83;21074;-89
2022/12/18 10:02:41;;;;;;;44.83;27.07;;;;;;;-2.47;79.65;102272.48;2834575;82;21554;-89
2022/12/18 10:06:54;;;;;;;52.58;31.15;;;;;;;-2.41;79.57;102259.02;2821025;83;21094;-88
2022/12/18 10:11:07;;;;;;;51.68;30.88;;;;;;;-2.24;79.00;102261.27;2832259;83;21058;-89
2022/12/18 10:15:32;;;;;;;56.73;33.40;;;;;;;-2.14;78.60;102254.79;2682890;87;21089;-89
2022/12/18 10:19:48;;;;;;;69.87;35.43;;;;;;;-2.01;78.04;102253.94;2692310;87;21146;-89
2022/12/18 10:24:14;;;;;;;115.42;64.75;;;;;;;-2.01;76.98;102255.23;2682803;87;21638;-89
2022/12/18 10:28:18;;;;;;;69.32;40.88;;;;;;;-2.07;76.72;102248.71;2674368;87;21636;-89
2022/12/18 10:32:29;;;;;;;97.62;52.05;;;;;;;-2.17;77.65;102240.84;2680008;87;21049;-89
2022/12/18 10:36:30;;;;;;;56.30;35.00;;;;;;;-2.07;77.95;102260.00;2645370;87;21071;-89
2022/12/18 10:40:33;;;;;;;60.85;33.70;;;;;;;-2.10;77.51;102263.05;2660801;88;21588;-89
2022/12/18 10:44:34;;;;;;;55.08;32.90;;;;;;;-1.96;77.90;102268.30;2676768;87;21113;-90
2022/12/18 10:48:54;;;;;;;62.43;35.05;;;;;;;-2.01;78.12;102270.89;2661210;88;21594;-89
2022/12/18 10:52:59;;;;;;;52.43;29.70;;;;;;;-2.07;78.23;102258.69;2796290;83;21043;-89
2022/12/18 10:57:36;;;;;;;61.13;32.03;;;;;;;-2.07;78.23;102258.69;2828482;83;21079;-89
2022/12/18 11:01:56;;;;;;;67.27;33.58;;;;;;;-1.92;78.32;102283.08;2815043;83;21670;-89
2022/12/18 11:06:14;;;;;;;69.27;40.78;;;;;;;-1.98;78.20;102283.94;2824493;83;21071;-89
2022/12/18 11:10:19;;;;;;;58.70;37.03;;;;;;;-2.02;78.80;102283.50;2801696;83;21105;-89
2022/12/18 11:14:33;;;;;;;49.95;33.10;;;;;;;-2.02;78.87;102266.12;2787713;83;21020;-90
2022/12/18 11:18:36;;;;;;;64.37;33.42;;;;;;;-2.10;78.84;102271.73;2781872;83;21585;-90
2022/12/18 11:22:38;;;;;;;64.97;32.20;;;;;;;-2.14;79.12;102269.13;2805094;83;21004;-89
2022/12/18 11:26:43;;;;;;;65.42;36.23;;;;;;;-2.31;79.60;102261.67;2796496;83;21426;-90
2022/12/18 11:30:42;;;;;;;63.00;39.38;;;;;;;-2.31;79.60;102247.33;2773091;83;21023;-90
2022/12/18 11:34:48;;;;;;;59.95;35.92;;;;;;;-2.36;79.99;102238.63;2790761;83;21038;-90
2022/12/18 11:38:53;;;;;;;55.48;29.77;;;;;;;-2.32;80.41;102248.64;2822205;83;21023;-89
2022/12/18 11:43:19;;;;;;;63.10;32.98;;;;;;;-2.48;81.12;102235.55;2783506;82;21082;-90
2022/12/18 11:47:59;;;;;;;57.83;31.33;;;;;;;-2.41;81.33;102241.66;2784027;83;21078;-90
2022/12/18 11:52:21;;;;;;;51.73;29.77;;;;;;;-2.52;81.63;102231.20;2778875;83;21612;-90
2022/12/18 11:56:43;;;;;;;63.05;33.40;;;;;;;-2.56;82.00;102234.63;2833834;83;21589;-90
2022/12/18 12:01:14;;;;;;;53.23;32.60;;;;;;;-2.53;82.21;102231.18;2800096;81;21059;-90
2022/12/18 12:05:27;;;;;;;60.80;32.00;;;;;;;-2.53;81.87;102229.45;2732193;83;21010;-89
2022/12/18 12:09:58;;;;;;;55.67;32.20;;;;;;;-2.59;82.37;102237.23;2792041;83;21023;-90
2022/12/18 12:14:26;;;;;;;57.05;35.08;;;;;;;-2.64;82.35;102235.92;2823374;82;21060;-90
2022/12/18 12:18:39;;;;;;;77.30;41.53;;;;;;;-2.67;82.32;102235.89;2805893;83;21086;-89
2022/12/18 12:23:01;;;;;;;62.53;35.65;;;;;;;-2.78;82.59;102237.59;2831022;83;21671;-89
2022/12/18 12:27:19;;;;;;;65.05;34.58;;;;;;;-2.80;82.85;102242.77;2796567;84;21074;-89
2022/12/18 12:31:43;;;;;;;62.55;32.70;;;;;;;-2.79;82.72;102240.61;2802419;83;21079;-89
2022/12/18 12:36:10;;;;;;;66.10;34.88;;;;;;;-2.84;82.84;102244.08;2849959;81;21058;-90
2022/12/18 12:40:20;;;;;;;65.40;35.40;;;;;;;-2.85;82.89;102247.51;2834311;83;21019;-89
2022/12/18 12:44:29;;;;;;;57.53;31.95;;;;;;;-2.91;82.92;102232.75;2871213;81;21558;-90
2022/12/18 12:48:48;;;;;;;76.22;37.55;;;;;;;-2.91;82.92;102232.75;2767133;83;21053;-90
2022/12/18 12:52:56;;;;;;;66.97;36.05;;;;;;;-2.97;82.59;102230.08;2831066;82;21102;-89
2022/12/18 12:57:12;;;;;;;66.90;38.38;;;;;;;-3.05;82.88;102223.52;2815015;82;21042;-90
2022/12/18 13:01:25;;;;;;;81.90;47.57;;;;;;;-3.09;83.21;102227.86;2791406;82;21070;-89
2022/12/18 13:05:52;;;;;;;61.45;35.58;;;;;;;-3.19;83.78;102223.03;2828477;83;21042;-89
2022/12/18 13:10:22;;;;;;;60.92;33.50;;;;;;;-3.25;84.29;102224.71;2879758;80;20994;-90
2022/12/18 13:14:36;;;;;;;57.85;30.32;;;;;;;-3.35;84.82;102230.28;2839782;81;21046;-89
2022/12/18 13:18:38;;;;;;;59.23;31.33;;;;;;;-3.44;84.75;102236.28;2880271;82;21640;-89
2022/12/18 13:22:44;;;;;;;58.23;32.05;;;;;;;-3.51;85.07;102247.07;2827642;82;21055;-89
2022/12/18 13:26:45;;;;;;;69.35;39.15;;;;;;;-3.59;85.18;102250.91;2828328;83;21031;-89
2022/12/18 13:30:50;;;;;;;65.17;33.42;;;;;;;-3.56;85.12;102258.29;2861882;81;21572;-88
2022/12/18 13:35:23;;;;;;;63.33;31.55;;;;;;;-3.61;85.51;102255.22;2852855;81;21059;-89
2022/12/18 13:39:33;;;;;;;63.23;34.08;;;;;;;-3.62;84.97;102258.69;2832282;81;21034;-89
2022/12/18 13:43:45;;;;;;;62.25;33.95;;;;;;;-3.70;85.26;102271.17;2850262;82;21014;-88
2022/12/18 13:47:47;;;;;;;60.83;29.12;;;;;;;-3.74;85.15;102272.86;2830243;82;21094;-90
2022/12/18 13:51:53;;;;;;;43.08;25.02;;;;;;;-3.83;84.87;102272.79;2817651;82;21497;-90
2022/12/18 13:55:55;;;;;;;50.80;26.00;;;;;;;-3.92;84.69;102275.75;2835989;81;22249;-88
2022/12/18 13:59:57;;;;;;;43.85;28.38;;;;;;;-3.95;84.92;102283.94;2822538;83;21061;-85
2022/12/18 14:04:29;;;;;;;57.33;29.70;;;;;;;-4.03;84.80;102291.23;2849214;82;21030;-89
2022/12/18 14:08:38;;;;;;;49.25;27.02;;;;;;;-4.08;84.63;102286.39;2788878;82;21038;-87
2022/12/18 14:12:58;;;;;;;61.95;30.95;;;;;;;-4.18;84.41;102287.16;2853401;80;21023;-87
2022/12/18 14:16:59;;;;;;;69.12;35.05;;;;;;;-4.22;84.29;102294.03;2820775;83;21070;-87
2022/12/18 14:21:03;;;;;;;56.88;31.48;;;;;;;-4.30;84.37;102287.88;2855914;82;22020;-87
2022/12/18 14:25:19;;;;;;;55.90;33.70;;;;;;;-4.39;84.73;102294.25;2816136;83;21695;-87
2022/12/18 14:29:29;;;;;;;53.05;30.90;;;;;;;-4.50;85.22;102303.20;2761162;83;21571;-87
2022/12/18 14:33:30;;;;;;;62.15;36.15;;;;;;;-4.57;85.21;102309.18;2815351;83;21060;-87
2022/12/18 14:37:32;;;;;;;63.00;34.00;;;;;;;-4.63;85.40;102317.75;2806083;83;21075;-87
2022/12/18 14:41:33;;;;;;;62.98;33.63;;;;;;;-4.71;85.30;102320.23;2806194;83;21614;-87
2022/12/18 14:45:43;;;;;;;74.03;36.13;;;;;;;-4.79;85.14;102317.97;2804574;83;21138;-88
2022/12/18 14:49:44;;;;;;;48.28;24.00;;;;;;;-4.87;85.17;102316.55;2791003;83;21038;-86
2022/12/18 14:54:01;;;;;;;60.78;35.00;;;;;;;-4.98;85.54;102311.61;2818609;82;22028;-88
2022/12/18 14:58:02;;;;;;;;;;;;;;;-5.06;86.11;102299.80;2812039;82;21067;-86
2022/12/18 15:02:24;;;;;;;;;;;;;;;-5.15;87.24;102305.72;2789841;83;20445;-87
2022/12/18 15:06:32;;;;;;;;;;;;;;;-5.20;87.56;102299.59;2817526;82;20140;-86
2022/12/18 15:10:34;;;;;;;;;;;;;;;-5.23;87.74;102287.43;2822475;81;20145;-86
2022/12/18 15:14:41;;;;;;;;;;;;;;;-5.24;87.93;102285.69;2826877;82;20136;-88
2022/12/18 15:18:45;;;;;;;;;;;;;;;-5.24;87.24;102288.72;2816177;81;20123;-86
2022/12/18 15:22:47;;;;;;;;;;;;;;;-5.26;86.00;102284.79;2817791;81;20144;-87
2022/12/18 15:26:48;;;;;;;;;;;;;;;-5.33;85.19;102283.81;2802343;82;20129;-86
2022/12/18 15:31:13;;;;;;;;;;;;;;;-5.45;84.06;102275.84;2876720;81;20159;-86
2022/12/18 15:35:20;;;;;;;;;;;;;;;-5.64;84.13;102270.75;2849645;80;20128;-86
2022/12/18 15:39:21;;;;;;;;;;;;;;;-5.81;85.05;102273.91;2865083;81;20232;-86
2022/12/18 15:43:36;;;;;;;;;;;;;;;-5.87;87.48;102280.29;2869547;81;20152;-85
2022/12/18 15:47:37;;;;;;;;;;;;;;;-5.93;90.11;102278.45;2828762;81;20120;-86
2022/12/18 15:51:39;;;;;;;;;;;;;;;-5.93;90.75;102275.86;2848480;81;20186;-86
2022/12/18 15:59:59;;;;;;;;;;;;;;;-6.04;90.40;102255.40;2847639;80;20487;-85
2022/12/18 16:04:01;;;;;;;;;;;;;;;-6.04;90.78;102248.92;2854325;81;20124;-85
2022/12/18 16:08:02;;;;;;;;;;;;;;;-6.09;90.60;102233.69;2851729;81;20137;-86
2022/12/18 16:12:03;;;;;;;;;;;;;;;-6.15;91.61;102230.58;2780026;80;20123;-85
2022/12/18 16:16:05;;;;;;;;;;;;;;;-6.20;92.02;102230.48;2850983;80;20135;-86
2022/12/18 16:20:09;;;;;;;;;;;;;;;-6.23;92.40;102212.30;2832367;80;20542;-85
2022/12/18 16:24:15;;;;;;;;;;;;;;;-6.30;92.87;102206.53;2850536;80;20112;-86
2022/12/18 16:28:17;;;;;;;;;;;;;;;-6.35;93.77;102192.22;2853099;81;20116;-86
2022/12/18 16:32:20;;;;;;;;;;;;;;;-6.42;94.55;102202.43;2852374;80;20124;-86
2022/12/18 16:36:21;;;;;;;;;;;;;;;-6.40;94.82;102200.30;2838843;81;20097;-87
2022/12/18 16:40:22;;;;;;;;;;;;;;;-6.46;94.46;102214.03;2781874;82;20107;-85
2022/12/18 16:44:23;;;;;;;;;;;;;;;-6.60;94.74;102223.22;2818921;82;20113;-84
2022/12/18 16:48:24;;;;;;;;;;;;;;;-6.63;94.95;102219.28;2821962;82;20212;-85
2022/12/18 16:52:25;;;;;;;;;;;;;;;-6.65;94.95;102228.30;2802655;82;20565;-84
2022/12/18 16:56:31;;;;;;;;;;;;;;;-6.66;95.60;102220.52;2821431;82;20120;-86
2022/12/18 17:00:32;;;;;;;;;;;;;;;-6.65;96.47;102228.73;2809901;82;20105;-86
2022/12/18 17:04:33;;;;;;;;;;;;;;;-6.58;96.30;102230.59;2834985;82;20144;-84
2022/12/18 17:08:34;;;;;;;;;;;;;;;-6.63;98.05;102254.23;2837214;82;20467;-86
2022/12/18 17:12:36;;;;;;;;;;;;;;;-6.52;98.50;102240.21;2836057;82;20135;-85
2022/12/18 17:16:37;;;;;;;;;;;;;;;-6.43;98.78;102246.00;2839166;82;20105;-86
2022/12/18 17:20:38;;;;;;;;;;;;;;;-6.36;97.96;102240.09;2797348;83;20128;-86
2022/12/18 17:24:39;;;;;;;;;;;;;;;-6.36;97.13;102248.75;2834424;82;20164;-86
2022/12/18 17:28:40;;;;;;;;;;;;;;;-6.39;96.65;102240.89;2812346;82;20540;-86
2022/12/18 17:32:41;;;;;;;;;;;;;;;-6.43;96.38;102232.62;2820201;82;20115;-86
2022/12/18 17:36:43;;;;;;;;;;;;;;;-6.47;96.55;102234.30;2853683;80;20124;-86
2022/12/18 17:40:43;;;;;;;;;;;;;;;-6.44;96.23;102226.13;2856936;81;20254;-85
2022/12/18 17:44:45;;;;;;;;;;;;;;;-6.52;96.85;102233.30;2846405;81;20282;-86
2022/12/18 17:48:46;;;;;;;;;;;;;;;-6.53;96.82;102230.27;2867691;81;20141;-86
2022/12/18 17:52:48;;;;;;;;;;;;;;;-6.51;96.37;102228.58;2878134;81;20110;-85
2022/12/18 17:56:49;;;;;;;;;;;;;;;-6.53;96.39;102236.73;2858674;80;20152;-85
2022/12/18 18:00:50;;;;;;;;;;;;;;;-6.57;96.82;102227.60;2871917;81;20160;-86
2022/12/18 18:04:51;;;;;;;;;;;;;;;-6.53;96.00;102230.27;2876108;81;20422;-85
2022/12/18 18:08:52;;;;;;;;;;;;;;;-6.47;96.36;102220.45;2838168;81;20104;-85
2022/12/18 18:17:13;;;;;;;;;;;;;;;-6.44;97.31;102213.18;2861838;80;20463;-86
2022/12/18 18:21:15;;;;;;;;;;;;;;;-6.39;97.74;102208.52;2847768;81;20146;-86
2022/12/18 18:25:16;;;;;;;;;;;;;;;-6.33;97.60;102212.95;2830587;81;20086;-86
2022/12/18 18:29:20;;;;;;;;;;;;;;;-6.38;98.22;102218.06;2865877;82;20116;-86
2022/12/18 18:33:22;;;;;;;;;;;;;;;-6.40;98.27;102213.25;2878329;81;20121;-86
2022/12/18 18:37:24;;;;;;;;;;;;;;;-6.37;97.76;102202.09;2866894;81;20150;-87
2022/12/18 18:41:25;;;;;;;;;;;;;;;-6.43;97.61;102198.09;2884513;81;20160;-87
2022/12/18 18:45:26;;;;;;;;;;;;;;;-6.45;97.45;102205.82;2875058;81;20112;-87
2022/12/18 18:49:27;;;;;;;;;;;;;;;-6.49;97.27;102201.43;2893236;81;20113;-86
2022/12/18 18:53:29;;;;;;;;;;;;;;;-6.51;97.01;102207.86;2843582;81;20132;-86
2022/12/18 18:57:29;;;;;;;;;;;;;;;-6.51;96.43;102203.12;2850673;80;20241;-86
2022/12/18 19:01:31;;;;;;;;;;;;;;;-6.53;95.76;102199.19;2881910;81;20171;-86
2022/12/18 19:05:32;;;;;;;;;;;;;;;-6.60;95.50;102193.45;2885707;81;20145;-90
2022/12/18 19:09:35;;;;;;;;;;;;;;;-6.62;95.49;102197.73;2870563;80;20191;-89
2022/12/18 19:13:36;;;;;;;;;;;;;;;-6.60;94.88;102203.80;2883119;81;20105;-87
2022/12/18 19:17:37;;;;;;;;;;;;;;;-6.68;94.29;102206.64;2832701;81;20093;-91